sensor_id;sensor_type;location;lat;lon;timestamp;temperature;humidity
75500;DHT22;64076;51.466;7.260;2023-02-28T00:00:51;19.40;26.60
75500;DHT22;64076;51.466;7.260;2023-02-28T00:03:16;19.40;26.60
75500;DHT22;64076;51.466;7.260;2023-02-28T00:05:42;19.40;26.60
75500;DHT22;64076;51.466;7.260;2023-02-28T00:08:08;19.40;26.60
75500;DHT22;64076;51.466;7.260;2023-02-28T00:10:34;19.40;26.60
75500;DHT22;64076;51.466;7.260;2023-02-28T00:22:48;19.30;26.60
75500;DHT22;64076;51.466;7.260;2023-02-28T00:25:16;19.30;26.60
75500;DHT22;64076;51.466;7.260;2023-02-28T00:27:43;19.30;26.60
75500;DHT22;64076;51.466;7.260;2023-02-28T00:30:11;19.40;26.50
75500;DHT22;64076;51.466;7.260;2023-02-28T00:32:37;19.40;26.60
75500;DHT22;64076;51.466;7.260;2023-02-28T00:35:04;19.40;26.60
75500;DHT22;64076;51.466;7.260;2023-02-28T00:37:29;19.30;26.50
75500;DHT22;64076;51.466;7.260;2023-02-28T00:39:55;19.40;26.50
75500;DHT22;64076;51.466;7.260;2023-02-28T00:42:21;19.30;26.50
75500;DHT22;64076;51.466;7.260;2023-02-28T00:44:47;19.40;26.50
75500;DHT22;64076;51.466;7.260;2023-02-28T00:47:12;19.40;26.50
75500;DHT22;64076;51.466;7.260;2023-02-28T00:49:38;19.30;26.50
75500;DHT22;64076;51.466;7.260;2023-02-28T00:52:03;19.30;26.60
75500;DHT22;64076;51.466;7.260;2023-02-28T00:54:29;19.30;26.50
75500;DHT22;64076;51.466;7.260;2023-02-28T00:56:55;19.30;26.50
75500;DHT22;64076;51.466;7.260;2023-02-28T00:59:20;19.30;26.50
75500;DHT22;64076;51.466;7.260;2023-02-28T01:01:46;19.30;26.60
75500;DHT22;64076;51.466;7.260;2023-02-28T01:04:13;19.30;26.60
75500;DHT22;64076;51.466;7.260;2023-02-28T01:06:39;19.30;26.50
75500;DHT22;64076;51.466;7.260;2023-02-28T01:09:06;19.30;26.60
75500;DHT22;64076;51.466;7.260;2023-02-28T01:11:32;19.30;26.60
75500;DHT22;64076;51.466;7.260;2023-02-28T01:18:50;19.30;26.50
75500;DHT22;64076;51.466;7.260;2023-02-28T01:21:18;19.30;26.50
75500;DHT22;64076;51.466;7.260;2023-02-28T01:23:44;19.20;26.60
75500;DHT22;64076;51.466;7.260;2023-02-28T01:26:11;19.20;26.60
75500;DHT22;64076;51.466;7.260;2023-02-28T01:28:37;19.20;26.60
75500;DHT22;64076;51.466;7.260;2023-02-28T02:13:46;19.20;26.60
75500;DHT22;64076;51.466;7.260;2023-02-28T02:22:00;19.20;26.60
75500;DHT22;64076;51.466;7.260;2023-02-28T02:24:33;19.20;26.60
75500;DHT22;64076;51.466;7.260;2023-02-28T02:45:22;19.20;26.60
75500;DHT22;64076;51.466;7.260;2023-02-28T02:47:50;19.10;26.50
75500;DHT22;64076;51.466;7.260;2023-02-28T03:02:48;19.10;26.50
75500;DHT22;64076;51.466;7.260;2023-02-28T03:07:45;19.10;26.50
75500;DHT22;64076;51.466;7.260;2023-02-28T03:52:09;19.10;26.50
75500;DHT22;64076;51.466;7.260;2023-02-28T04:02:22;19.10;26.40
75500;DHT22;64076;51.466;7.260;2023-02-28T04:04:47;19.00;26.40
75500;DHT22;64076;51.466;7.260;2023-02-28T04:07:15;19.00;26.40
75500;DHT22;64076;51.466;7.260;2023-02-28T04:09:41;19.00;26.40
75500;DHT22;64076;51.466;7.260;2023-02-28T04:12:07;19.00;26.50
75500;DHT22;64076;51.466;7.260;2023-02-28T04:14:32;19.00;26.40
75500;DHT22;64076;51.466;7.260;2023-02-28T04:16:58;19.00;26.40
75500;DHT22;64076;51.466;7.260;2023-02-28T04:19:24;19.00;26.40
75500;DHT22;64076;51.466;7.260;2023-02-28T04:21:51;19.00;26.40
75500;DHT22;64076;51.466;7.260;2023-02-28T04:26:51;19.00;26.40
75500;DHT22;64076;51.466;7.260;2023-02-28T04:29:25;19.00;26.40
75500;DHT22;64076;51.466;7.260;2023-02-28T04:31:51;19.00;26.30
75500;DHT22;64076;51.466;7.260;2023-02-28T04:34:19;19.00;26.40
75500;DHT22;64076;51.466;7.260;2023-02-28T04:36:45;19.00;26.40
75500;DHT22;64076;51.466;7.260;2023-02-28T04:39:11;19.00;26.30
75500;DHT22;64076;51.466;7.260;2023-02-28T04:41:37;19.00;26.30
75500;DHT22;64076;51.466;7.260;2023-02-28T04:44:03;19.00;26.30
75500;DHT22;64076;51.466;7.260;2023-02-28T04:46:28;19.00;26.30
75500;DHT22;64076;51.466;7.260;2023-02-28T04:48:55;19.00;26.30
75500;DHT22;64076;51.466;7.260;2023-02-28T04:51:21;19.00;26.30
75500;DHT22;64076;51.466;7.260;2023-02-28T04:53:47;19.00;26.30
75500;DHT22;64076;51.466;7.260;2023-02-28T04:56:15;19.00;26.30
75500;DHT22;64076;51.466;7.260;2023-02-28T04:58:41;19.00;26.30
75500;DHT22;64076;51.466;7.260;2023-02-28T05:03:54;19.00;26.30
75500;DHT22;64076;51.466;7.260;2023-02-28T05:06:23;19.00;26.30
75500;DHT22;64076;51.466;7.260;2023-02-28T05:08:49;19.00;26.20
75500;DHT22;64076;51.466;7.260;2023-02-28T05:16:07;19.00;26.20
75500;DHT22;64076;51.466;7.260;2023-02-28T05:18:32;19.00;26.20
75500;DHT22;64076;51.466;7.260;2023-02-28T05:23:27;19.00;26.20
75500;DHT22;64076;51.466;7.260;2023-02-28T05:25:53;19.00;26.20
75500;DHT22;64076;51.466;7.260;2023-02-28T05:28:19;18.90;26.20
75500;DHT22;64076;51.466;7.260;2023-02-28T05:45:31;18.90;26.20
75500;DHT22;64076;51.466;7.260;2023-02-28T05:47:56;18.90;26.20
75500;DHT22;64076;51.466;7.260;2023-02-28T05:55:17;18.90;26.20
75500;DHT22;64076;51.466;7.260;2023-02-28T05:57:43;18.90;26.10
75500;DHT22;64076;51.466;7.260;2023-02-28T06:00:10;18.90;26.10
75500;DHT22;64076;51.466;7.260;2023-02-28T06:05:01;18.90;26.10
75500;DHT22;64076;51.466;7.260;2023-02-28T06:07:27;18.90;26.10
75500;DHT22;64076;51.466;7.260;2023-02-28T06:09:52;18.90;26.10
75500;DHT22;64076;51.466;7.260;2023-02-28T06:12:18;18.90;26.10
75500;DHT22;64076;51.466;7.260;2023-02-28T06:17:10;18.90;26.10
75500;DHT22;64076;51.466;7.260;2023-02-28T06:19:37;18.80;25.90
75500;DHT22;64076;51.466;7.260;2023-02-28T06:24:30;18.80;25.90
75500;DHT22;64076;51.466;7.260;2023-02-28T06:31:50;18.80;25.70
75500;DHT22;64076;51.466;7.260;2023-02-28T06:34:16;19.00;25.50
75500;DHT22;64076;51.466;7.260;2023-02-28T06:36:42;19.10;25.40
75500;DHT22;64076;51.466;7.260;2023-02-28T06:39:08;19.10;25.30
75500;DHT22;64076;51.466;7.260;2023-02-28T06:46:32;19.20;25.30
75500;DHT22;64076;51.466;7.260;2023-02-28T06:48:57;19.60;24.90
75500;DHT22;64076;51.466;7.260;2023-02-28T06:51:23;19.80;24.80
75500;DHT22;64076;51.466;7.260;2023-02-28T06:53:50;20.00;24.50
75500;DHT22;64076;51.466;7.260;2023-02-28T06:56:18;20.20;24.40
75500;DHT22;64076;51.466;7.260;2023-02-28T06:58:49;20.40;24.20
75500;DHT22;64076;51.466;7.260;2023-02-28T07:01:16;20.50;24.20
75500;DHT22;64076;51.466;7.260;2023-02-28T07:03:42;20.60;24.10
75500;DHT22;64076;51.466;7.260;2023-02-28T07:06:08;20.60;24.10
75500;DHT22;64076;51.466;7.260;2023-02-28T07:08:34;20.60;24.00
75500;DHT22;64076;51.466;7.260;2023-02-28T07:11:01;20.60;24.00
75500;DHT22;64076;51.466;7.260;2023-02-28T07:13:27;20.60;24.00
75500;DHT22;64076;51.466;7.260;2023-02-28T07:16:01;20.60;24.00
75500;DHT22;64076;51.466;7.260;2023-02-28T07:18:27;20.70;23.90
75500;DHT22;64076;51.466;7.260;2023-02-28T07:30:37;20.70;24.00
75500;DHT22;64076;51.466;7.260;2023-02-28T07:37:57;20.90;23.80
75500;DHT22;64076;51.466;7.260;2023-02-28T07:40:22;20.90;23.80
75500;DHT22;64076;51.466;7.260;2023-02-28T07:42:48;20.90;23.90
75500;DHT22;64076;51.466;7.260;2023-02-28T07:45:13;20.90;23.90
75500;DHT22;64076;51.466;7.260;2023-02-28T07:47:40;20.80;23.90
75500;DHT22;64076;51.466;7.260;2023-02-28T07:50:07;20.80;23.90
75500;DHT22;64076;51.466;7.260;2023-02-28T07:52:34;20.70;23.90
75500;DHT22;64076;51.466;7.260;2023-02-28T07:54:59;20.70;23.90
75500;DHT22;64076;51.466;7.260;2023-02-28T07:57:25;20.70;23.80
75500;DHT22;64076;51.466;7.260;2023-02-28T07:59:50;20.70;23.90
75500;DHT22;64076;51.466;7.260;2023-02-28T08:02:17;20.70;23.90
75500;DHT22;64076;51.466;7.260;2023-02-28T08:04:43;20.60;23.90
75500;DHT22;64076;51.466;7.260;2023-02-28T08:07:08;20.60;23.90
75500;DHT22;64076;51.466;7.260;2023-02-28T08:09:39;20.60;23.90
75500;DHT22;64076;51.466;7.260;2023-02-28T08:12:04;20.60;23.90
75500;DHT22;64076;51.466;7.260;2023-02-28T08:14:30;20.60;23.90
75500;DHT22;64076;51.466;7.260;2023-02-28T08:16:56;20.60;23.90
75500;DHT22;64076;51.466;7.260;2023-02-28T08:19:22;20.50;23.80
75500;DHT22;64076;51.466;7.260;2023-02-28T08:21:47;20.50;23.80
75500;DHT22;64076;51.466;7.260;2023-02-28T08:24:13;20.50;23.80
75500;DHT22;64076;51.466;7.260;2023-02-28T08:26:38;20.50;23.80
75500;DHT22;64076;51.466;7.260;2023-02-28T08:29:04;20.50;23.80
75500;DHT22;64076;51.466;7.260;2023-02-28T08:31:29;20.50;23.70
75500;DHT22;64076;51.466;7.260;2023-02-28T08:33:55;20.50;23.70
75500;DHT22;64076;51.466;7.260;2023-02-28T08:36:24;20.50;23.70
75500;DHT22;64076;51.466;7.260;2023-02-28T08:38:50;20.50;23.60
75500;DHT22;64076;51.466;7.260;2023-02-28T08:41:19;20.50;23.60
75500;DHT22;64076;51.466;7.260;2023-02-28T08:43:44;20.50;23.70
75500;DHT22;64076;51.466;7.260;2023-02-28T08:46:12;20.50;23.70
75500;DHT22;64076;51.466;7.260;2023-02-28T08:48:39;20.50;23.70
75500;DHT22;64076;51.466;7.260;2023-02-28T08:51:10;20.50;23.70
75500;DHT22;64076;51.466;7.260;2023-02-28T08:53:37;20.50;23.60
75500;DHT22;64076;51.466;7.260;2023-02-28T08:56:06;20.40;23.60
75500;DHT22;64076;51.466;7.260;2023-02-28T08:58:33;20.40;23.60
75500;DHT22;64076;51.466;7.260;2023-02-28T09:00:59;20.40;23.50
75500;DHT22;64076;51.466;7.260;2023-02-28T09:03:26;20.40;23.60
75500;DHT22;64076;51.466;7.260;2023-02-28T09:05:54;20.40;23.50
75500;DHT22;64076;51.466;7.260;2023-02-28T09:08:20;20.40;23.60
75500;DHT22;64076;51.466;7.260;2023-02-28T09:10:46;20.40;23.60
75500;DHT22;64076;51.466;7.260;2023-02-28T09:13:11;20.40;23.60
75500;DHT22;64076;51.466;7.260;2023-02-28T09:15:38;20.40;23.60
75500;DHT22;64076;51.466;7.260;2023-02-28T09:18:03;20.50;23.70
75500;DHT22;64076;51.466;7.260;2023-02-28T09:20:29;20.40;23.60
75500;DHT22;64076;51.466;7.260;2023-02-28T09:22:55;20.40;23.70
75500;DHT22;64076;51.466;7.260;2023-02-28T09:25:23;20.40;23.70
75500;DHT22;64076;51.466;7.260;2023-02-28T09:27:49;20.40;23.70
75500;DHT22;64076;51.466;7.260;2023-02-28T09:30:15;20.40;23.70
75500;DHT22;64076;51.466;7.260;2023-02-28T09:32:40;20.50;23.60
75500;DHT22;64076;51.466;7.260;2023-02-28T09:35:06;20.40;23.50
75500;DHT22;64076;51.466;7.260;2023-02-28T09:37:32;20.40;23.50
75500;DHT22;64076;51.466;7.260;2023-02-28T09:39:57;20.40;23.40
75500;DHT22;64076;51.466;7.260;2023-02-28T09:42:33;20.40;23.30
75500;DHT22;64076;51.466;7.260;2023-02-28T09:45:02;20.40;23.30
75500;DHT22;64076;51.466;7.260;2023-02-28T09:47:34;20.40;23.20
75500;DHT22;64076;51.466;7.260;2023-02-28T09:50:35;20.40;23.20
75500;DHT22;64076;51.466;7.260;2023-02-28T09:53:19;20.40;23.00
75500;DHT22;64076;51.466;7.260;2023-02-28T09:55:52;20.40;23.00
75500;DHT22;64076;51.466;7.260;2023-02-28T09:58:22;20.30;23.00
75500;DHT22;64076;51.466;7.260;2023-02-28T10:01:02;20.30;23.00
75500;DHT22;64076;51.466;7.260;2023-02-28T10:03:40;20.20;22.90
75500;DHT22;64076;51.466;7.260;2023-02-28T10:06:17;20.30;22.90
75500;DHT22;64076;51.466;7.260;2023-02-28T10:09:13;20.20;22.90
75500;DHT22;64076;51.466;7.260;2023-02-28T10:11:42;20.20;22.80
75500;DHT22;64076;51.466;7.260;2023-02-28T10:14:17;20.20;22.90
75500;DHT22;64076;51.466;7.260;2023-02-28T10:16:54;20.20;22.90
75500;DHT22;64076;51.466;7.260;2023-02-28T10:22:24;20.10;22.90
75500;DHT22;64076;51.466;7.260;2023-02-28T10:24:53;20.10;22.80
75500;DHT22;64076;51.466;7.260;2023-02-28T10:27:21;20.00;22.80
75500;DHT22;64076;51.466;7.260;2023-02-28T10:29:55;20.00;22.80
75500;DHT22;64076;51.466;7.260;2023-02-28T10:32:24;20.00;22.80
75500;DHT22;64076;51.466;7.260;2023-02-28T10:35:17;20.00;22.80
75500;DHT22;64076;51.466;7.260;2023-02-28T10:37:46;20.00;22.70
75500;DHT22;64076;51.466;7.260;2023-02-28T10:42:58;19.90;22.60
75500;DHT22;64076;51.466;7.260;2023-02-28T10:45:25;19.90;22.50
75500;DHT22;64076;51.466;7.260;2023-02-28T10:53:07;19.80;22.40
75500;DHT22;64076;51.466;7.260;2023-02-28T10:55:34;19.80;22.30
75500;DHT22;64076;51.466;7.260;2023-02-28T10:57:59;19.90;22.30
75500;DHT22;64076;51.466;7.260;2023-02-28T11:00:25;19.80;22.30
75500;DHT22;64076;51.466;7.260;2023-02-28T11:02:56;19.90;22.30
75500;DHT22;64076;51.466;7.260;2023-02-28T11:08:10;19.90;22.20
75500;DHT22;64076;51.466;7.260;2023-02-28T11:10:38;19.90;22.10
75500;DHT22;64076;51.466;7.260;2023-02-28T11:13:05;19.90;22.20
75500;DHT22;64076;51.466;7.260;2023-02-28T11:15:33;19.90;22.10
75500;DHT22;64076;51.466;7.260;2023-02-28T11:18:18;19.90;22.00
75500;DHT22;64076;51.466;7.260;2023-02-28T11:20:50;20.00;22.00
75500;DHT22;64076;51.466;7.260;2023-02-28T11:23:17;19.90;22.00
75500;DHT22;64076;51.466;7.260;2023-02-28T11:25:56;19.90;22.00
75500;DHT22;64076;51.466;7.260;2023-02-28T11:28:32;20.00;22.00
75500;DHT22;64076;51.466;7.260;2023-02-28T11:36:23;19.90;22.00
75500;DHT22;64076;51.466;7.260;2023-02-28T11:38:54;20.00;22.00
75500;DHT22;64076;51.466;7.260;2023-02-28T11:47:47;20.00;21.90
75500;DHT22;64076;51.466;7.260;2023-02-28T11:50:49;20.00;21.90
75500;DHT22;64076;51.466;7.260;2023-02-28T11:56:39;20.10;21.90
75500;DHT22;64076;51.466;7.260;2023-02-28T12:02:25;20.00;21.90
75500;DHT22;64076;51.466;7.260;2023-02-28T12:05:08;20.00;22.00
75500;DHT22;64076;51.466;7.260;2023-02-28T12:08:03;20.00;22.00
75500;DHT22;64076;51.466;7.260;2023-02-28T12:10:43;20.00;22.00
75500;DHT22;64076;51.466;7.260;2023-02-28T12:13:19;20.00;22.00
75500;DHT22;64076;51.466;7.260;2023-02-28T12:15:57;20.00;22.00
75500;DHT22;64076;51.466;7.260;2023-02-28T12:24:14;20.00;22.10
75500;DHT22;64076;51.466;7.260;2023-02-28T12:26:45;20.00;22.10
75500;DHT22;64076;51.466;7.260;2023-02-28T12:29:19;19.90;22.10
75500;DHT22;64076;51.466;7.260;2023-02-28T12:34:21;20.00;22.10
75500;DHT22;64076;51.466;7.260;2023-02-28T12:36:51;20.00;22.10
75500;DHT22;64076;51.466;7.260;2023-02-28T12:39:28;20.00;22.10
75500;DHT22;64076;51.466;7.260;2023-02-28T12:42:44;20.00;22.10
75500;DHT22;64076;51.466;7.260;2023-02-28T12:44:47;20.00;22.10
75500;DHT22;64076;51.466;7.260;2023-02-28T12:50:04;20.00;22.20
75500;DHT22;64076;51.466;7.260;2023-02-28T12:53:06;19.90;22.20
75500;DHT22;64076;51.466;7.260;2023-02-28T13:09:08;19.80;22.40
75500;DHT22;64076;51.466;7.260;2023-02-28T13:11:43;19.80;22.40
75500;DHT22;64076;51.466;7.260;2023-02-28T13:14:21;19.80;22.40
75500;DHT22;64076;51.466;7.260;2023-02-28T13:24:50;19.80;22.40
75500;DHT22;64076;51.466;7.260;2023-02-28T13:32:29;19.90;22.40
75500;DHT22;64076;51.466;7.260;2023-02-28T13:55:53;20.00;22.70
75500;DHT22;64076;51.466;7.260;2023-02-28T13:58:43;20.10;22.70
75500;DHT22;64076;51.466;7.260;2023-02-28T14:01:27;20.10;22.70
75500;DHT22;64076;51.466;7.260;2023-02-28T21:31:44;20.00;22.80
75500;DHT22;64076;51.466;7.260;2023-02-28T21:34:11;19.60;25.00
75500;DHT22;64076;51.466;7.260;2023-02-28T23:39:26;19.60;25.00
75500;DHT22;64076;51.466;7.260;2023-02-28T23:41:52;19.40;25.30
75500;DHT22;64076;51.466;7.260;2023-02-28T23:44:18;19.40;25.40
75500;DHT22;64076;51.466;7.260;2023-02-28T23:46:46;19.40;25.30
75500;DHT22;64076;51.466;7.260;2023-02-28T23:49:13;19.40;25.40
75500;DHT22;64076;51.466;7.260;2023-02-28T23:51:39;19.40;25.40
75500;DHT22;64076;51.466;7.260;2023-02-28T23:54:05;19.30;25.40
75500;DHT22;64076;51.466;7.260;2023-02-28T23:56:31;19.30;25.40
75500;DHT22;64076;51.466;7.260;2023-02-28T23:58:57;19.30;25.40
